createdAt,value
2018-04-22T00:00:58.118Z,80.60
2018-04-22T00:01:58.110Z,80.12
2018-04-22T00:02:58.112Z,79.93
2018-04-22T00:03:58.110Z,80.60
2018-04-22T00:04:58.177Z,79.83
2018-04-22T00:05:58.106Z,79.46
2018-04-22T00:06:58.101Z,79.74
2018-04-22T00:07:58.107Z,80.02
2018-04-22T00:08:58.103Z,80.31
2018-04-22T00:09:58.093Z,79.22
2018-04-22T00:10:58.094Z,79.83
2018-04-22T00:11:58.091Z,79.74
2018-04-22T00:12:58.080Z,79.60
2018-04-22T00:13:58.083Z,79.17
2018-04-22T00:14:58.081Z,79.46
2018-04-22T00:15:58.079Z,80.36
2018-04-22T00:16:58.076Z,79.17
2018-04-22T00:17:58.074Z,79.89
2018-04-22T00:18:58.073Z,79.70
2018-04-22T00:19:58.070Z,79.99
2018-04-22T00:20:58.066Z,79.93
2018-04-22T00:21:58.063Z,79.80
2018-04-22T00:22:58.063Z,80.46
2018-04-22T00:23:58.058Z,80.60
2018-04-22T00:24:58.054Z,79.80
2018-04-22T00:25:58.054Z,79.93
2018-04-22T00:26:58.047Z,79.13
2018-04-22T00:27:58.048Z,80.12
2018-04-22T00:28:58.045Z,79.70
2018-04-22T00:29:58.041Z,79.99
2018-04-22T00:30:58.047Z,79.99
2018-04-22T00:31:58.040Z,80.18
2018-04-22T00:32:58.035Z,80.46
2018-04-22T00:33:58.034Z,80.27
2018-04-22T00:34:58.029Z,80.55
2018-04-22T00:35:58.026Z,79.80
2018-04-22T00:36:58.028Z,80.18
2018-04-22T00:37:58.024Z,79.41
2018-04-22T00:38:58.019Z,79.32
2018-04-22T00:39:58.024Z,79.60
2018-04-22T00:40:58.011Z,79.22
2018-04-22T00:41:58.020Z,79.51
2018-04-22T00:42:58.007Z,79.51
2018-04-22T00:43:58.006Z,79.41
2018-04-22T00:44:58.001Z,79.80
2018-04-22T00:45:57.997Z,79.80
2018-04-22T00:46:57.996Z,79.99
2018-04-22T00:47:57.993Z,79.99
2018-04-22T00:48:57.992Z,79.51
2018-04-22T00:49:57.991Z,79.70
2018-04-22T00:50:57.987Z,79.22
2018-04-22T00:51:57.983Z,80.18
2018-04-22T00:52:57.989Z,79.99
2018-04-22T00:53:57.980Z,79.99
2018-04-22T00:54:57.976Z,79.99
2018-04-22T00:55:57.974Z,80.36
2018-04-22T00:56:57.967Z,79.99
2018-04-22T00:57:57.968Z,80.55
2018-04-22T00:58:57.966Z,81.13
2018-04-22T00:59:57.960Z,80.08
2018-04-22T01:00:57.965Z,79.60
2018-04-22T01:01:57.955Z,79.41
2018-04-22T01:02:57.954Z,79.51
2018-04-22T01:03:57.960Z,78.99
2018-04-22T01:04:57.947Z,79.19
2018-04-22T01:05:57.951Z,79.51
2018-04-22T01:06:57.943Z,78.90
2018-04-22T01:07:57.941Z,79.09
2018-04-22T01:08:57.935Z,79.22
2018-04-22T01:09:57.948Z,79.22
2018-04-22T01:10:57.931Z,79.19
2018-04-22T01:11:57.931Z,79.28
2018-04-22T01:12:57.923Z,79.28
2018-04-22T01:13:57.924Z,79.57
2018-04-22T01:14:57.919Z,79.38
2018-04-22T01:15:57.923Z,78.99
2018-04-22T01:16:57.916Z,79.66
2018-04-22T01:17:57.911Z,79.09
2018-04-22T01:18:57.906Z,78.42
2018-04-22T01:19:57.905Z,78.90
2018-04-22T01:20:57.908Z,78.80
2018-04-22T01:21:57.902Z,78.99
2018-04-22T01:22:57.895Z,79.09
2018-04-22T01:23:57.893Z,79.28
2018-04-22T01:24:57.899Z,78.99
2018-04-22T01:25:57.889Z,79.19
2018-04-22T01:26:57.888Z,78.33
2018-04-22T01:27:57.888Z,78.42
2018-04-22T01:28:57.875Z,78.61
2018-04-22T01:29:57.880Z,78.71
2018-04-22T01:30:57.870Z,77.95
2018-04-22T01:31:57.869Z,77.95
2018-04-22T01:32:57.872Z,77.95
2018-04-22T01:33:57.866Z,78.04
2018-04-22T01:34:57.866Z,78.04
2018-04-22T01:35:57.861Z,77.95
2018-04-22T01:36:57.856Z,78.42
2018-04-22T01:37:57.854Z,78.14
2018-04-22T01:38:57.859Z,78.23
2018-04-22T01:39:57.848Z,78.04
2018-04-22T01:40:57.846Z,77.56
2018-04-22T01:41:57.839Z,78.14
2018-04-22T01:42:57.842Z,77.85
2018-04-22T01:43:57.835Z,77.85
2018-04-22T01:44:57.833Z,77.28
2018-04-22T01:45:57.829Z,77.76
2018-04-22T01:46:57.831Z,77.76
2018-04-22T01:47:57.822Z,78.61
2018-04-22T01:48:57.817Z,78.33
2018-04-22T01:49:57.813Z,78.04
2018-04-22T01:50:57.814Z,77.95
2018-04-22T01:51:57.808Z,78.33
2018-04-22T01:52:57.805Z,77.85
2018-04-22T01:53:57.799Z,77.56
2018-04-22T01:54:57.797Z,77.76
2018-04-22T01:55:57.803Z,78.33
2018-04-22T01:56:57.792Z,77.72
2018-04-22T01:57:57.794Z,78.14
2018-04-22T01:58:57.784Z,77.72
2018-04-22T01:59:57.780Z,77.81
2018-04-22T02:00:57.783Z,77.28
2018-04-22T02:01:57.774Z,77.76
2018-04-22T02:02:57.769Z,77.53
2018-04-22T02:03:57.768Z,77.15
2018-04-22T02:04:57.762Z,77.05
2018-04-22T02:05:57.766Z,77.24
2018-04-22T02:06:57.755Z,77.05
2018-04-22T02:07:57.754Z,77.24
2018-04-22T02:08:57.753Z,77.05
2018-04-22T02:09:57.741Z,77.15
2018-04-22T02:10:57.744Z,77.24
2018-04-22T02:11:57.812Z,77.05
2018-04-22T02:12:57.737Z,76.86
2018-04-22T02:13:57.733Z,77.43
2018-04-22T02:14:57.729Z,76.96
2018-04-22T02:15:57.727Z,77.05
2018-04-22T02:16:57.727Z,76.76
2018-04-22T02:17:57.718Z,76.96
2018-04-22T02:18:57.718Z,76.86
2018-04-22T02:19:57.709Z,76.76
2018-04-22T02:20:57.707Z,77.24
2018-04-22T02:21:57.704Z,76.86
2018-04-22T02:22:57.702Z,76.86
2018-04-22T02:23:57.698Z,76.96
2018-04-22T02:24:57.694Z,76.76
2018-04-22T02:25:57.693Z,76.76
2018-04-22T02:26:57.689Z,76.48
2018-04-22T02:27:57.682Z,76.20
2018-04-22T02:28:57.683Z,76.48
2018-04-22T02:29:57.676Z,77.05
2018-04-22T02:30:57.673Z,76.86
2018-04-22T02:31:57.671Z,76.67
2018-04-22T02:32:57.667Z,77.05
2018-04-22T02:33:57.663Z,77.05
2018-04-22T02:34:57.659Z,77.53
2018-04-22T02:35:57.658Z,76.96
2018-04-22T02:36:57.649Z,76.86
2018-04-22T02:37:57.648Z,76.67
2018-04-22T02:38:57.647Z,76.67
2018-04-22T02:39:57.641Z,76.10
2018-04-22T02:40:57.637Z,76.57
2018-04-22T02:41:57.637Z,76.96
2018-04-22T02:42:57.633Z,76.67
2018-04-22T02:43:57.627Z,76.96
2018-04-22T02:44:57.622Z,76.20
2018-04-22T02:45:57.628Z,76.01
2018-04-22T02:46:57.618Z,76.29
2018-04-22T02:47:57.614Z,75.91
2018-04-22T02:48:57.609Z,76.29
2018-04-22T02:49:57.600Z,76.86
2018-04-22T02:50:57.601Z,76.48
2018-04-22T02:51:57.597Z,76.67
2018-04-22T02:52:57.592Z,76.29
2018-04-22T02:53:57.596Z,77.24
2018-04-22T02:54:57.583Z,77.05
2018-04-22T02:55:57.589Z,76.57
2018-04-22T02:56:57.576Z,76.86
2018-04-22T02:57:57.572Z,75.87
2018-04-22T02:58:57.578Z,76.25
2018-04-22T02:59:57.563Z,75.78
2018-04-22T03:00:57.565Z,75.87
2018-04-22T03:01:57.558Z,75.96
2018-04-22T03:02:57.552Z,75.96
2018-04-22T03:03:57.552Z,75.87
2018-04-22T03:04:57.544Z,76.06
2018-04-22T03:05:57.551Z,75.96
2018-04-22T03:06:57.541Z,76.06
2018-04-22T03:07:57.536Z,76.16
2018-04-22T03:08:57.530Z,76.25
2018-04-22T03:09:57.523Z,76.73
2018-04-22T03:10:57.523Z,76.92
2018-04-22T03:11:57.520Z,76.73
2018-04-22T03:12:57.516Z,77.49
2018-04-22T03:13:57.512Z,76.82
2018-04-22T03:14:57.509Z,76.92
2018-04-22T03:15:57.506Z,77.01
2018-04-22T03:16:57.501Z,76.73
2018-04-22T03:17:57.496Z,77.01
2018-04-22T03:18:57.493Z,77.11
2018-04-22T03:19:57.488Z,77.11
2018-04-22T03:20:57.484Z,77.39
2018-04-22T03:21:57.479Z,77.49
2018-04-22T03:22:57.479Z,78.06
2018-04-22T03:23:57.477Z,77.58
2018-04-22T03:24:57.470Z,77.97
2018-04-22T03:25:57.470Z,78.10
2018-04-22T03:26:57.462Z,77.68
2018-04-22T03:27:57.464Z,77.68
2018-04-22T03:28:57.450Z,77.30
2018-04-22T03:29:57.450Z,77.58
2018-04-22T03:30:57.451Z,76.82
2018-04-22T03:31:57.443Z,77.30
2018-04-22T03:32:57.440Z,77.30
2018-04-22T03:33:57.436Z,77.49
2018-04-22T03:34:57.436Z,77.68
2018-04-22T03:35:57.426Z,77.68
2018-04-22T03:36:57.423Z,77.49
2018-04-22T03:37:57.419Z,77.58
2018-04-22T03:38:57.412Z,77.87
2018-04-22T03:39:57.413Z,77.97
2018-04-22T03:40:57.408Z,78.06
2018-04-22T03:41:57.403Z,77.97
2018-04-22T03:42:57.402Z,77.87
2018-04-22T03:43:57.396Z,77.77
2018-04-22T03:44:57.392Z,77.77
2018-04-22T03:45:57.387Z,77.58
2018-04-22T03:46:57.386Z,77.30
2018-04-22T03:47:57.380Z,77.77
2018-04-22T03:48:57.377Z,77.77
2018-04-22T03:49:57.372Z,76.92
2018-04-22T03:50:57.367Z,77.87
2018-04-22T03:51:57.369Z,76.92
2018-04-22T03:52:57.357Z,77.49
2018-04-22T03:53:57.359Z,77.30
2018-04-22T03:54:57.355Z,77.97
2018-04-22T03:55:57.388Z,77.39
2018-04-22T03:56:57.345Z,77.87
2018-04-22T03:57:57.336Z,77.77
2018-04-22T03:58:57.340Z,77.77
2018-04-22T03:59:57.332Z,77.39
2018-04-22T04:00:57.328Z,77.11
2018-04-22T04:01:57.325Z,77.30
2018-04-22T04:02:57.319Z,77.11
2018-04-22T04:03:57.325Z,77.20
2018-04-22T04:04:57.313Z,77.58
2018-04-22T04:05:57.309Z,77.58
2018-04-22T04:06:57.304Z,77.58
2018-04-22T04:07:57.299Z,77.77
2018-04-22T04:08:57.297Z,78.06
2018-04-22T04:09:57.290Z,77.68
2018-04-22T04:10:57.289Z,77.77
2018-04-22T04:11:57.284Z,77.30
2018-04-22T04:12:57.284Z,77.87
2018-04-22T04:13:57.277Z,77.68
2018-04-22T04:14:57.283Z,77.49
2018-04-22T04:15:57.270Z,77.68
2018-04-22T04:16:57.261Z,77.68
2018-04-22T04:17:57.264Z,78.06
2018-04-22T04:18:57.258Z,77.68
2018-04-22T04:19:57.252Z,78.06
2018-04-22T04:20:57.247Z,78.00
2018-04-22T04:21:57.243Z,77.81
2018-04-22T04:22:57.247Z,77.72
2018-04-22T04:23:57.240Z,77.53
2018-04-22T04:24:57.235Z,77.81
2018-04-22T04:25:57.227Z,77.62
2018-04-22T04:26:57.221Z,78.00
2018-04-22T04:27:57.220Z,77.81
2018-04-22T04:28:57.216Z,77.91
2018-04-22T04:29:57.215Z,77.91
2018-04-22T04:30:57.209Z,77.53
2018-04-22T04:31:57.205Z,78.00
2018-04-22T04:32:57.201Z,77.72
2018-04-22T04:33:57.197Z,77.81
2018-04-22T04:34:57.194Z,78.10
2018-04-22T04:35:57.186Z,78.67
2018-04-22T04:36:57.183Z,78.19
2018-04-22T04:37:57.180Z,78.14
2018-04-22T04:38:57.181Z,78.14
2018-04-22T04:39:57.188Z,78.23
2018-04-22T04:40:57.169Z,78.57
2018-04-22T04:41:57.168Z,78.42
2018-04-22T04:42:57.162Z,78.42
2018-04-22T04:43:57.161Z,78.42
2018-04-22T04:44:57.154Z,79.09
2018-04-22T04:45:57.147Z,78.99
2018-04-22T04:46:57.147Z,78.99
2018-04-22T04:47:57.143Z,78.99
2018-04-22T04:48:57.140Z,79.19
2018-04-22T04:49:57.134Z,79.75
2018-04-22T04:50:57.128Z,79.89
2018-04-22T04:51:57.136Z,80.18
2018-04-22T04:52:57.123Z,79.70
2018-04-22T04:53:57.122Z,80.27
2018-04-22T04:54:57.122Z,80.18
2018-04-22T04:55:57.111Z,79.99
2018-04-22T04:56:57.113Z,81.55
2018-04-22T04:57:57.108Z,84.64
2018-04-22T04:58:57.105Z,83.92
2018-04-22T04:59:57.101Z,83.48
2018-04-22T05:00:57.098Z,85.53
2018-04-22T05:01:57.100Z,83.57
2018-04-22T05:02:57.091Z,85.42
2018-04-22T05:03:57.088Z,87.23
2018-04-22T05:04:57.086Z,86.70
2018-04-22T05:05:57.078Z,85.84
2018-04-22T05:06:57.078Z,84.45
2018-04-22T05:07:57.076Z,84.78
2018-04-22T05:08:57.076Z,82.71
2018-04-22T05:09:57.070Z,79.36
2018-04-22T05:10:57.064Z,78.53
2018-04-22T05:11:57.065Z,78.28
2018-04-22T05:12:57.069Z,72.11
2018-04-22T05:13:57.060Z,71.95
2018-04-22T05:14:57.063Z,73.00
2018-04-22T05:15:57.057Z,71.05
2018-04-22T05:16:57.049Z,70.96
2018-04-22T05:17:57.055Z,72.59
2018-04-22T05:18:57.056Z,69.62
2018-04-22T05:19:57.048Z,74.47
2018-04-22T05:20:57.044Z,74.27
2018-04-22T05:21:57.044Z,72.78
2018-04-22T05:22:57.045Z,72.01
2018-04-22T05:23:57.046Z,72.53
2018-04-22T05:24:57.052Z,70.35
2018-04-22T05:25:57.039Z,71.94
2018-04-22T05:26:57.041Z,76.12
2018-04-22T05:27:57.037Z,77.69
2018-04-22T05:28:57.035Z,73.35
2018-04-22T05:29:57.034Z,70.23
2018-04-22T05:30:57.035Z,68.79
2018-04-22T05:31:57.034Z,66.74
2018-04-22T05:32:57.031Z,63.92
2018-04-22T05:33:57.032Z,63.06
2018-04-22T05:34:57.032Z,63.16
2018-04-22T05:35:57.033Z,63.06
2018-04-22T05:36:57.027Z,62.99
2018-04-22T05:37:57.033Z,61.78
2018-04-22T05:38:57.030Z,59.57
2018-04-22T05:39:57.031Z,59.79
2018-04-22T05:40:57.027Z,56.52
2018-04-22T05:41:57.032Z,57.29
2018-04-22T05:42:57.028Z,57.39
2018-04-22T05:43:57.026Z,56.38
2018-04-22T05:44:57.027Z,56.00
2018-04-22T05:45:57.029Z,54.49
2018-04-22T05:46:57.022Z,52.63
2018-04-22T05:47:57.027Z,53.66
2018-04-22T05:48:57.029Z,53.98
2018-04-22T05:49:57.032Z,53.50
2018-04-22T05:50:57.030Z,52.66
2018-04-22T05:51:57.032Z,52.66
2018-04-22T05:52:57.031Z,52.40
2018-04-22T05:53:57.037Z,52.04
2018-04-22T05:54:57.034Z,50.78
2018-04-22T05:55:57.033Z,50.16
2018-04-22T05:56:57.036Z,48.59
2018-04-22T05:57:57.037Z,48.33
2018-04-22T05:58:57.039Z,47.94
2018-04-22T05:59:57.038Z,47.19
2018-04-22T06:00:57.035Z,46.71
2018-04-22T06:01:57.043Z,46.88
2018-04-22T06:02:57.043Z,46.03
2018-04-22T06:03:57.046Z,46.33
2018-04-22T06:04:57.045Z,46.42
2018-04-22T06:05:57.048Z,45.48
2018-04-22T06:06:57.049Z,44.63
2018-04-22T06:07:57.052Z,44.17
2018-04-22T06:08:57.056Z,43.13
2018-04-22T06:09:57.054Z,42.74
2018-04-22T06:10:57.059Z,42.25
2018-04-22T06:11:57.064Z,41.70
2018-04-22T06:12:57.062Z,41.72
2018-04-22T06:13:57.070Z,40.58
2018-04-22T06:14:57.076Z,39.80
2018-04-22T06:15:57.071Z,39.24
2018-04-22T06:16:57.074Z,38.17
2018-04-22T06:17:57.076Z,38.56
2018-04-22T06:18:57.079Z,38.83
2018-04-22T06:19:57.084Z,38.83
2018-04-22T06:20:57.086Z,39.03
2018-04-22T06:21:57.089Z,37.98
2018-04-22T06:22:57.104Z,37.30
2018-04-22T06:23:57.096Z,36.49
2018-04-22T06:24:57.095Z,38.31
2018-04-22T06:25:57.100Z,38.64
2018-04-22T06:26:57.105Z,37.01
2018-04-22T06:27:57.110Z,36.43
2018-04-22T06:28:57.115Z,36.54
2018-04-22T06:29:57.122Z,35.48
2018-04-22T06:30:57.125Z,35.19
2018-04-22T06:31:57.133Z,34.89
2018-04-22T06:32:57.130Z,36.00
2018-04-22T06:33:57.133Z,36.02
2018-04-22T06:34:57.182Z,36.33
2018-04-22T06:35:57.142Z,36.16
2018-04-22T06:36:57.148Z,35.17
2018-04-22T06:37:57.153Z,35.36
2018-04-22T06:38:57.156Z,35.19
2018-04-22T06:39:57.163Z,34.86
2018-04-22T06:40:57.170Z,36.40
2018-04-22T06:41:57.169Z,37.88
2018-04-22T06:42:57.184Z,38.87
2018-04-22T06:43:57.183Z,38.12
2018-04-22T06:44:57.182Z,37.82
2018-04-22T06:45:57.188Z,37.26
2018-04-22T06:46:57.194Z,36.57
2018-04-22T06:47:57.196Z,37.63
2018-04-22T06:48:57.199Z,37.30
2018-04-22T06:49:57.212Z,39.34
2018-04-22T06:50:57.214Z,38.68
2018-04-22T06:51:57.221Z,38.04
2018-04-22T06:52:57.215Z,36.68
2018-04-22T06:53:57.229Z,36.47
2018-04-22T06:54:57.229Z,38.41
2018-04-22T06:55:57.239Z,37.75
2018-04-22T06:56:57.239Z,37.19
2018-04-22T06:57:57.244Z,37.30
2018-04-22T06:58:57.250Z,36.70
2018-04-22T06:59:57.254Z,36.66
2018-04-22T07:00:57.258Z,37.36
2018-04-22T07:01:57.264Z,36.98
2018-04-22T07:02:57.270Z,37.44
2018-04-22T07:03:57.278Z,37.85
2018-04-22T07:04:57.281Z,37.46
2018-04-22T07:05:57.288Z,37.28
2018-04-22T07:06:57.297Z,36.40
2018-04-22T07:07:57.298Z,35.93
2018-04-22T07:08:57.309Z,36.55
2018-04-22T07:09:57.309Z,37.48
2018-04-22T07:10:57.313Z,36.64
2018-04-22T07:11:57.324Z,35.59
2018-04-22T07:12:57.324Z,35.05
2018-04-22T07:13:57.333Z,34.95
2018-04-22T07:14:57.337Z,33.78
2018-04-22T07:15:57.343Z,33.29
2018-04-22T07:16:57.351Z,33.31
2018-04-22T07:17:57.356Z,33.02
2018-04-22T07:18:57.358Z,34.32
2018-04-22T07:19:57.366Z,32.31
2018-04-22T07:20:57.368Z,31.63
2018-04-22T07:21:57.374Z,30.87
2018-04-22T07:22:57.381Z,30.44
2018-04-22T07:23:57.441Z,31.14
2018-04-22T07:24:57.399Z,30.88
2018-04-22T07:25:57.402Z,32.12
2018-04-22T07:26:57.407Z,33.17
2018-04-22T07:27:57.416Z,33.67
2018-04-22T07:28:57.421Z,33.38
2018-04-22T07:29:57.427Z,33.94
2018-04-22T07:30:57.434Z,33.56
2018-04-22T07:31:57.443Z,34.33
2018-04-22T07:32:57.449Z,33.88
2018-04-22T07:33:57.457Z,33.61
2018-04-22T07:34:57.464Z,32.23
2018-04-22T07:35:57.470Z,32.42
2018-04-22T07:36:57.482Z,33.67
2018-04-22T07:37:57.485Z,34.19
2018-04-22T07:38:57.491Z,33.33
2018-04-22T07:39:57.503Z,32.76
2018-04-22T07:40:57.504Z,32.59
2018-04-22T07:41:57.518Z,31.63
2018-04-22T07:42:57.528Z,30.93
2018-04-22T07:43:57.531Z,31.04
2018-04-22T07:44:57.537Z,30.74
2018-04-22T07:45:57.545Z,30.88
2018-04-22T07:46:57.553Z,31.16
2018-04-22T07:47:57.565Z,32.17
2018-04-22T07:48:57.573Z,31.13
2018-04-22T07:49:57.578Z,31.04
2018-04-22T07:50:57.585Z,30.35
2018-04-22T07:51:57.594Z,30.07
2018-04-22T07:52:57.600Z,30.07
2018-04-22T07:53:57.610Z,30.74
2018-04-22T07:54:57.618Z,31.14
2018-04-22T07:55:57.628Z,30.85
2018-04-22T07:56:57.640Z,30.54
2018-04-22T07:57:57.643Z,31.58
2018-04-22T07:58:57.649Z,31.38
2018-04-22T07:59:57.656Z,32.62
2018-04-22T08:00:57.663Z,33.17
2018-04-22T08:01:57.675Z,34.30
2018-04-22T08:02:57.683Z,35.94
2018-04-22T08:03:57.688Z,37.19
2018-04-22T08:04:57.695Z,36.96
2018-04-22T08:05:57.707Z,38.08
2018-04-22T08:06:57.711Z,39.78
2018-04-22T08:07:57.716Z,40.72
2018-04-22T08:08:57.722Z,42.66
2018-04-22T08:09:57.731Z,43.04
2018-04-22T08:10:57.741Z,41.88
2018-04-22T08:11:57.744Z,40.36
2018-04-22T08:12:57.749Z,40.38
2018-04-22T08:13:57.763Z,39.59
2018-04-22T08:14:57.762Z,40.67
2018-04-22T08:15:57.774Z,39.53
2018-04-22T08:16:57.775Z,40.84
2018-04-22T08:17:57.780Z,41.60
2018-04-22T08:18:57.787Z,42.40
2018-04-22T08:19:57.798Z,44.32
2018-04-22T08:20:57.801Z,45.34
2018-04-22T08:21:57.806Z,46.59
2018-04-22T08:22:57.812Z,46.45
2018-04-22T08:23:57.818Z,44.08
2018-04-22T08:24:57.823Z,42.12
2018-04-22T08:25:57.828Z,40.44
2018-04-22T08:26:57.837Z,37.36
2018-04-22T08:27:57.841Z,37.42
2018-04-22T08:28:57.846Z,38.76
2018-04-22T08:29:57.853Z,38.74
2018-04-22T08:30:57.860Z,40.55
2018-04-22T08:31:57.869Z,42.19
2018-04-22T08:32:57.872Z,42.94
2018-04-22T08:33:57.914Z,44.37
2018-04-22T08:34:57.882Z,44.64
2018-04-22T08:35:57.889Z,45.87
2018-04-22T08:36:57.893Z,45.99
2018-04-22T08:37:57.901Z,45.31
2018-04-22T08:38:57.907Z,45.12
2018-04-22T08:39:57.909Z,45.58
2018-04-22T08:40:57.914Z,47.03
2018-04-22T08:41:57.918Z,46.55
2018-04-22T08:42:57.923Z,46.83
2018-04-22T08:43:57.935Z,47.97
2018-04-22T08:44:57.932Z,48.44
2018-04-22T08:45:57.938Z,49.70
2018-04-22T08:46:57.944Z,49.22
2018-04-22T08:47:57.948Z,48.64
2018-04-22T08:48:57.953Z,47.97
2018-04-22T08:49:57.959Z,47.36
2018-04-22T08:50:57.962Z,47.94
2018-04-22T08:51:57.965Z,48.43
2018-04-22T08:52:57.967Z,49.84
2018-04-22T08:53:57.977Z,48.40
2018-04-22T08:54:57.979Z,49.27
2018-04-22T08:55:57.982Z,49.46
2018-04-22T08:56:57.995Z,49.27
2018-04-22T08:57:57.990Z,48.88
2018-04-22T08:58:58.002Z,49.46
2018-04-22T08:59:58.001Z,49.68
2018-04-22T09:00:58.011Z,49.77
2018-04-22T09:01:58.011Z,48.35
2018-04-22T09:02:58.009Z,47.99
2018-04-22T09:03:58.014Z,46.55
2018-04-22T09:04:58.019Z,46.66
2018-04-22T09:05:58.024Z,46.45
2018-04-22T09:06:58.025Z,46.93
2018-04-22T09:07:58.031Z,47.12
2018-04-22T09:08:58.041Z,47.70
2018-04-22T09:09:58.035Z,46.25
2018-04-22T09:10:58.040Z,46.93
2018-04-22T09:11:58.043Z,47.99
2018-04-22T09:12:58.045Z,47.60
2018-04-22T09:13:58.048Z,46.15
2018-04-22T09:14:58.052Z,46.15
2018-04-22T09:15:58.057Z,46.33
2018-04-22T09:16:58.058Z,46.04
2018-04-22T09:17:58.072Z,46.81
2018-04-22T09:18:58.071Z,47.39
2018-04-22T09:19:58.066Z,46.81
2018-04-22T09:20:58.081Z,47.99
2018-04-22T09:21:58.096Z,48.44
2018-04-22T09:22:58.078Z,49.73
2018-04-22T09:23:58.085Z,49.53
2018-04-22T09:24:58.087Z,48.47
2018-04-22T09:25:58.089Z,49.15
2018-04-22T09:26:58.098Z,46.83
2018-04-22T09:27:58.145Z,47.41
2018-04-22T09:28:58.099Z,47.80
2018-04-22T09:29:58.104Z,47.89
2018-04-22T09:30:58.105Z,47.70
2018-04-22T09:31:58.111Z,49.34
2018-04-22T09:32:58.113Z,48.47
2018-04-22T09:33:58.117Z,46.35
2018-04-22T09:34:58.122Z,48.47
2018-04-22T09:35:58.121Z,46.93
2018-04-22T09:36:58.126Z,47.41
2018-04-22T09:37:58.131Z,47.51
2018-04-22T09:38:58.137Z,48.08
2018-04-22T09:39:58.145Z,49.15
2018-04-22T09:40:58.140Z,48.76
2018-04-22T09:41:58.145Z,46.73
2018-04-22T09:42:58.142Z,46.83
2018-04-22T09:43:58.150Z,47.80
2018-04-22T09:44:58.155Z,48.47
2018-04-22T09:45:58.170Z,47.70
2018-04-22T09:46:58.163Z,47.70
2018-04-22T09:47:58.166Z,49.34
2018-04-22T09:48:58.172Z,47.60
2018-04-22T09:49:58.226Z,47.80
2018-04-22T09:50:58.171Z,49.15
2018-04-22T09:51:58.175Z,48.18
2018-04-22T09:52:58.180Z,47.80
2018-04-22T09:53:58.184Z,46.14
2018-04-22T09:54:58.195Z,47.67
2018-04-22T09:55:58.190Z,48.57
2018-04-22T09:56:58.193Z,48.57
2018-04-22T09:57:58.197Z,47.89
2018-04-22T09:58:58.199Z,47.67
2018-04-22T09:59:58.204Z,48.06
2018-04-22T10:00:58.206Z,47.99
2018-04-22T10:01:58.236Z,47.60
2018-04-22T10:02:58.218Z,47.60
2018-04-22T10:03:58.226Z,47.22
2018-04-22T10:04:58.288Z,47.99
2018-04-22T10:05:58.221Z,48.47
2018-04-22T10:06:58.226Z,47.99
2018-04-22T10:07:58.232Z,46.25
2018-04-22T10:08:58.240Z,46.64
2018-04-22T10:09:58.247Z,47.89
2018-04-22T10:10:58.303Z,48.08
2018-04-22T10:11:58.246Z,46.76
2018-04-22T10:12:58.245Z,46.66
2018-04-22T10:13:58.252Z,48.11
2018-04-22T10:14:58.253Z,47.72
2018-04-22T10:15:58.266Z,47.82
2018-04-22T10:16:58.273Z,46.76
2018-04-22T10:17:58.264Z,48.23
2018-04-22T10:18:58.271Z,47.45
2018-04-22T10:19:58.271Z,48.13
2018-04-22T10:20:58.269Z,48.42
2018-04-22T10:21:58.281Z,47.58
2018-04-22T10:22:58.279Z,46.42
2018-04-22T10:23:58.284Z,48.03
2018-04-22T10:24:58.288Z,47.77
2018-04-22T10:25:58.291Z,46.33
2018-04-22T10:26:58.297Z,45.65
2018-04-22T10:27:58.298Z,45.36
2018-04-22T10:28:58.300Z,46.33
2018-04-22T10:29:58.310Z,44.59
2018-04-22T10:30:58.309Z,44.49
2018-04-22T10:31:58.318Z,45.55
2018-04-22T10:32:58.316Z,46.23
2018-04-22T10:33:58.319Z,45.45
2018-04-22T10:34:58.329Z,45.43
2018-04-22T10:35:58.331Z,45.53
2018-04-22T10:36:58.328Z,45.53
2018-04-22T10:37:58.334Z,45.34
2018-04-22T10:38:58.344Z,47.19
2018-04-22T10:39:58.345Z,48.25
2018-04-22T10:40:58.351Z,46.13
2018-04-22T10:41:58.403Z,45.45
2018-04-22T10:42:58.356Z,45.17
2018-04-22T10:43:58.361Z,44.29
2018-04-22T10:44:58.359Z,44.78
2018-04-22T10:45:58.363Z,45.17
2018-04-22T10:46:58.368Z,43.81
2018-04-22T10:47:58.377Z,44.01
2018-04-22T10:48:58.376Z,44.03
2018-04-22T10:49:58.386Z,44.12
2018-04-22T10:50:58.405Z,45.09
2018-04-22T10:51:58.383Z,43.45
2018-04-22T10:52:58.393Z,43.62
2018-04-22T10:53:58.390Z,43.62
2018-04-22T10:54:58.397Z,42.66
2018-04-22T10:55:58.405Z,42.75
2018-04-22T10:56:58.406Z,43.14
2018-04-22T10:57:58.518Z,45.55
2018-04-22T10:58:58.416Z,44.87
2018-04-22T10:59:58.417Z,43.81
2018-04-22T11:00:58.422Z,44.68
2018-04-22T11:01:58.469Z,42.87
2018-04-22T11:02:58.430Z,44.12
2018-04-22T11:03:58.431Z,42.68
2018-04-22T11:04:58.441Z,41.61
2018-04-22T11:05:58.440Z,42.77
2018-04-22T11:06:58.442Z,42.97
2018-04-22T11:07:58.450Z,41.42
2018-04-22T11:08:58.452Z,41.91
2018-04-22T11:09:58.466Z,42.97
2018-04-22T11:10:58.459Z,42.19
2018-04-22T11:11:58.464Z,41.52
2018-04-22T11:12:58.466Z,40.63
2018-04-22T11:13:58.470Z,43.16
2018-04-22T11:14:58.480Z,42.48
2018-04-22T11:15:58.495Z,42.77
2018-04-22T11:16:58.490Z,41.91
2018-04-22T11:17:58.489Z,41.52
2018-04-22T11:18:58.489Z,41.83
2018-04-22T11:19:58.496Z,42.21
2018-04-22T11:20:58.498Z,41.61
2018-04-22T11:21:58.501Z,41.52
2018-04-22T11:22:58.508Z,41.78
2018-04-22T11:23:58.517Z,42.29
2018-04-22T11:24:58.513Z,42.00
2018-04-22T11:25:58.516Z,42.77
2018-04-22T11:26:58.530Z,43.16
2018-04-22T11:27:58.530Z,43.06
2018-04-22T11:28:58.540Z,42.77
2018-04-22T11:29:58.528Z,43.28
2018-04-22T11:30:58.533Z,43.47
2018-04-22T11:31:58.539Z,42.60
2018-04-22T11:32:58.545Z,42.31
2018-04-22T11:33:58.554Z,45.11
2018-04-22T11:34:58.553Z,43.85
2018-04-22T11:35:58.556Z,43.08
2018-04-22T11:36:58.560Z,41.63
2018-04-22T11:37:58.607Z,40.96
2018-04-22T11:38:58.568Z,40.96
2018-04-22T11:39:58.574Z,41.42
2018-04-22T11:40:58.577Z,41.52
2018-04-22T11:41:58.626Z,41.52
2018-04-22T11:42:58.629Z,41.71
2018-04-22T11:43:58.589Z,41.42
2018-04-22T11:44:58.593Z,42.10
2018-04-22T11:45:58.604Z,41.52
2018-04-22T11:46:58.602Z,41.71
2018-04-22T11:47:58.605Z,41.52
2018-04-22T11:49:01.179Z,41.91
2018-04-22T11:49:58.613Z,41.83
2018-04-22T11:50:58.663Z,41.63
2018-04-22T11:51:58.624Z,43.47
2018-04-22T11:52:58.624Z,42.79
2018-04-22T11:53:58.634Z,41.73
2018-04-22T11:54:58.631Z,42.04
2018-04-22T11:55:58.650Z,41.44
2018-04-22T11:56:58.641Z,40.11
2018-04-22T11:57:58.644Z,41.66
2018-04-22T11:58:58.648Z,41.35
2018-04-22T11:59:58.725Z,41.54
2018-04-22T12:00:58.658Z,42.99
2018-04-22T12:01:58.661Z,43.10
2018-04-22T12:02:58.665Z,41.93
2018-04-22T12:03:58.671Z,41.73
2018-04-22T12:04:58.678Z,42.60
2018-04-22T12:05:58.677Z,42.14
2018-04-22T12:06:58.682Z,42.79
2018-04-22T12:07:58.685Z,41.83
2018-04-22T12:08:58.686Z,40.77
2018-04-22T12:09:58.703Z,41.44
2018-04-22T12:10:58.697Z,41.54
2018-04-22T12:11:58.705Z,40.96
2018-04-22T12:12:58.704Z,41.54
2018-04-22T12:13:58.710Z,41.54
2018-04-22T12:14:58.710Z,41.44
2018-04-22T12:15:58.718Z,41.42
2018-04-22T12:16:58.718Z,41.35
2018-04-22T12:17:58.724Z,41.44
2018-04-22T12:18:58.734Z,42.21
2018-04-22T12:19:58.735Z,41.66
2018-04-22T12:20:58.742Z,42.33
2018-04-22T12:21:58.751Z,42.24
2018-04-22T12:22:58.749Z,41.58
2018-04-22T12:23:58.752Z,41.48
2018-04-22T12:24:58.755Z,40.81
2018-04-22T12:25:58.759Z,41.67
2018-04-22T12:26:58.767Z,42.16
2018-04-22T12:27:58.769Z,42.65
2018-04-22T12:28:58.771Z,40.52
2018-04-22T12:29:58.776Z,40.71
2018-04-22T12:30:58.779Z,40.81
2018-04-22T12:31:58.786Z,42.25
2018-04-22T12:32:58.793Z,41.67
2018-04-22T12:33:58.800Z,42.07
2018-04-22T12:34:58.798Z,41.77
2018-04-22T12:35:58.813Z,41.48
2018-04-22T12:36:58.809Z,42.83
2018-04-22T12:37:58.811Z,42.96
2018-04-22T12:38:58.819Z,41.50
2018-04-22T12:39:58.820Z,41.89
2018-04-22T12:40:58.826Z,40.92
2018-04-22T12:41:58.830Z,40.32
2018-04-22T12:42:58.836Z,39.95
2018-04-22T12:43:58.838Z,40.44
2018-04-22T12:44:58.843Z,40.71
2018-04-22T12:45:58.850Z,41.27
2018-04-22T12:46:58.852Z,41.85
2018-04-22T12:47:58.855Z,41.75
2018-04-22T12:48:58.861Z,41.85
2018-04-22T12:49:58.878Z,42.55
2018-04-22T12:50:58.867Z,42.35
2018-04-22T12:51:58.873Z,41.67
2018-04-22T12:52:58.897Z,41.97